| Date | Time | Temp. (oF) | Dew Point (oF) | Rel. Hum. (%) | Press. (in.) | Wind Dir. | Wind Speed (mph) | Hourly Rainfall (in.) |
|
|---|---|---|---|---|---|---|---|---|---|
| 1 | 03/03 | 00:00 | 28 | 22 | 81 | 30.30 | ENE | 0 | 0.00 |
| 2 | 03/02 | 23:00 | 31 | 23 | 73 | 30.30 | SSW | 0 | 0.00 |
| 3 | 03/02 | 22:00 | 31 | 22 | 71 | 30.31 | SSE | 0 | 0.00 |
| 4 | 03/02 | 21:00 | 33 | 21 | 62 | 30.30 | SSE | 0 | 0.00 |
| 5 | 03/02 | 20:00 | 36 | 21 | 55 | 30.31 | SSE | 0 | 0.00 |
| 6 | 03/02 | 19:00 | 38 | 20 | 49 | 30.30 | SSE | 0 | 0.00 |
| 7 | 03/02 | 18:00 | 41 | 20 | 43 | 30.27 | NNE | 2 | 0.00 |
| 8 | 03/02 | 17:00 | 42 | 20 | 42 | 30.26 | NNW | 3 | 0.00 |
| 9 | 03/02 | 16:00 | 44 | 21 | 41 | 30.26 | NW | 0 | 0.00 |
| 10 | 03/02 | 15:00 | 44 | 21 | 41 | 30.26 | NNW | 4 | 0.00 |
| 11 | 03/02 | 14:00 | 43 | 22 | 44 | 30.28 | WSW | 5 | 0.00 |
| 12 | 03/02 | 13:00 | 40 | 21 | 48 | 30.30 | NNW | 8 | 0.00 |
| 13 | 03/02 | 12:00 | 38 | 21 | 51 | 30.33 | SW | 7 | 0.00 |
| 14 | 03/02 | 11:00 | 35 | 19 | 52 | 30.34 | WSW | 6 | 0.00 |
| 15 | 03/02 | 10:00 | 33 | 18 | 56 | 30.34 | NNE | 12 | 0.00 |
| 16 | 03/02 | 09:00 | 31 | 18 | 59 | 30.33 | NNW | 7 | 0.00 |
| 17 | 03/02 | 08:00 | 30 | 18 | 63 | 30.32 | NW | 2 | 0.00 |
| 18 | 03/02 | 07:00 | 26 | 16 | 67 | 30.29 | SW | 1 | 0.00 |
| 19 | 03/02 | 06:00 | 26 | 16 | 66 | 30.26 | SW | 1 | 0.00 |
| 20 | 03/02 | 05:00 | 27 | 16 | 65 | 30.24 | NW | 6 | 0.00 |
| 21 | 03/02 | 04:00 | 28 | 16 | 62 | 30.22 | NW | 7 | 0.00 |
| 22 | 03/02 | 03:00 | 29 | 16 | 60 | 30.22 | NW | 6 | 0.00 |
| 23 | 03/02 | 02:00 | 29 | 16 | 60 | 30.20 | NNW | 7 | 0.00 |
| 24 | 03/02 | 01:00 | 30 | 16 | 57 | 30.20 | WNW | 9 | 0.00 |